Time;durP1;ratioP1;P1;durP2;ratioP2;P2;SDS_P1;SDS_P2;PMS_P1;PMS_P2;Temp;Humidity;BMP_temperature;BMP_pressure;BME280_temperature;BME280_humidity;BME280_pressure;Samples;Min_cycle;Max_cycle;Signal;HPM_P1;HPM_P2
2022/04/30 00:00:16;;;;;;;8.33;4.53;;;10.20;99.90;;;;;;5109690;27;20477;-68
2022/04/30 00:02:42;;;;;;;10.03;4.30;;;10.20;99.90;;;;;;5113400;27;20228;-68
2022/04/30 00:05:09;;;;;;;8.70;4.23;;;10.20;99.90;;;;;;5108717;27;20443;-68
2022/04/30 00:07:35;;;;;;;5.60;3.90;;;10.30;99.90;;;;;;5102260;27;20279;-68
2022/04/30 00:10:01;;;;;;;9.60;4.67;;;10.30;99.90;;;;;;5107074;27;20486;-68
2022/04/30 00:12:28;;;;;;;7.03;4.40;;;10.30;99.90;;;;;;5107928;27;20452;-68
2022/04/30 00:14:55;;;;;;;6.87;4.60;;;10.30;99.90;;;;;;5110383;27;20577;-68
2022/04/30 00:17:20;;;;;;;9.47;5.13;;;10.30;99.90;;;;;;5106003;27;20487;-69
2022/04/30 00:19:46;;;;;;;9.70;4.20;;;10.20;99.90;;;;;;5106565;27;20873;-68
2022/04/30 00:22:12;;;;;;;8.20;4.00;;;10.30;99.90;;;;;;5102146;28;20266;-68
2022/04/30 00:24:38;;;;;;;7.60;3.97;;;10.30;99.90;;;;;;5105728;27;20309;-69
2022/04/30 00:27:05;;;;;;;7.80;3.93;;;10.20;99.90;;;;;;5105612;27;20206;-68
2022/04/30 00:29:31;;;;;;;12.70;4.30;;;10.20;99.90;;;;;;5102780;27;20659;-68
2022/04/30 00:32:00;;;;;;;6.80;4.27;;;10.20;99.90;;;;;;5110226;27;20876;-68
2022/04/30 00:34:26;;;;;;;8.57;4.53;;;10.20;99.90;;;;;;5099595;27;20483;-68
2022/04/30 00:36:51;;;;;;;7.53;4.67;;;10.20;99.90;;;;;;5105150;27;21015;-68
2022/04/30 00:39:17;;;;;;;8.43;3.93;;;10.10;99.90;;;;;;5103625;27;20214;-68
2022/04/30 00:41:45;;;;;;;10.07;5.27;;;10.00;99.90;;;;;;5105818;27;20203;-68
2022/04/30 00:44:11;;;;;;;12.03;5.00;;;10.10;99.90;;;;;;5107162;27;20461;-68
2022/04/30 00:46:37;;;;;;;6.97;4.80;;;10.10;99.90;;;;;;5110397;27;20441;-68
2022/04/30 00:49:03;;;;;;;8.73;4.57;;;10.10;99.90;;;;;;5110004;27;20436;-68
2022/04/30 00:51:29;;;;;;;7.50;4.03;;;10.20;99.90;;;;;;5100381;27;20276;-67
2022/04/30 00:53:56;;;;;;;11.13;5.27;;;10.20;99.90;;;;;;5102960;27;20769;-67
2022/04/30 00:56:59;;;;;;;13.13;5.00;;;10.30;99.90;;;;;;5108650;27;21014;-68
2022/04/30 00:59:26;;;;;;;9.50;5.00;;;10.30;99.80;;;;;;5061600;28;21091;-68
2022/04/30 01:01:51;;;;;;;11.70;5.77;;;10.30;99.90;;;;;;5097374;27;20437;-68
2022/04/30 01:04:20;;;;;;;12.30;5.80;;;10.30;99.90;;;;;;5107159;27;20512;-68
2022/04/30 01:06:52;;;;;;;10.47;5.90;;;10.30;99.90;;;;;;5107773;27;20182;-68
2022/04/30 01:09:28;;;;;;;10.73;6.10;;;10.30;99.90;;;;;;5098314;28;20521;-68
2022/04/30 01:12:06;;;;;;;18.23;7.50;;;10.30;99.90;;;;;;5104898;27;20547;-68
2022/04/30 01:14:32;;;;;;;18.20;6.90;;;10.20;99.90;;;;;;5107658;27;20543;-68
2022/04/30 01:16:59;;;;;;;16.00;8.10;;;10.30;99.90;;;;;;5111850;27;20432;-68
2022/04/30 01:19:29;;;;;;;13.77;7.17;;;10.20;99.90;;;;;;5094463;27;20484;-68
2022/04/30 01:22:00;;;;;;;22.60;9.03;;;10.20;99.90;;;;;;5101973;27;20446;-68
2022/04/30 01:24:28;;;;;;;17.90;9.33;;;10.20;99.90;;;;;;5103683;27;20613;-67
2022/04/30 01:26:55;;;;;;;14.90;8.10;;;10.10;99.90;;;;;;5112965;27;20424;-68
2022/04/30 01:29:23;;;;;;;19.87;8.23;;;10.20;99.90;;;;;;5102285;27;21094;-67
2022/04/30 01:37:22;;;;;;;18.87;10.60;;;10.20;99.90;;;;;;5104727;28;20447;-68
2022/04/30 01:39:52;;;;;;;18.33;8.83;;;10.20;99.90;;;;;;5087997;28;20440;-67
2022/04/30 01:42:18;;;;;;;18.60;8.37;;;10.10;99.90;;;;;;5109352;28;20180;-69
2022/04/30 01:44:46;;;;;;;19.43;10.17;;;10.10;99.90;;;;;;5112210;28;20556;-68
2022/04/30 01:47:14;;;;;;;26.10;11.00;;;10.10;99.90;;;;;;5098164;28;21285;-68
2022/04/30 01:49:40;;;;;;;21.50;10.10;;;10.10;99.90;;;;;;5109426;28;20433;-67
2022/04/30 01:52:07;;;;;;;26.47;10.67;;;10.10;99.90;;;;;;5103111;28;20589;-67
2022/04/30 01:54:34;;;;;;;18.33;9.30;;;10.10;99.90;;;;;;5110182;28;20183;-70
2022/04/30 01:56:59;;;;;;;16.67;9.77;;;10.00;99.90;;;;;;5107881;28;20440;-67
2022/04/30 01:59:25;;;;;;;17.10;8.73;;;10.10;99.90;;;;;;5105076;28;21323;-68
2022/04/30 02:01:51;;;;;;;22.47;10.40;;;10.10;99.90;;;;;;5106504;28;20720;-69
2022/04/30 02:04:18;;;;;;;19.83;9.80;;;10.10;99.90;;;;;;5102666;28;20210;-69
2022/04/30 02:06:45;;;;;;;18.13;8.37;;;10.10;99.90;;;;;;5105351;28;20524;-68
2022/04/30 02:09:11;;;;;;;19.97;10.07;;;10.10;99.90;;;;;;5107927;28;20472;-69
2022/04/30 02:11:38;;;;;;;25.53;8.27;;;10.10;99.90;;;;;;5104265;28;20525;-68
2022/04/30 02:14:06;;;;;;;20.47;9.23;;;10.10;99.90;;;;;;5105807;28;20440;-69
2022/04/30 02:16:34;;;;;;;20.77;8.87;;;10.10;99.90;;;;;;5102798;28;20441;-69
2022/04/30 02:19:02;;;;;;;24.00;8.23;;;10.00;99.90;;;;;;5103346;28;20456;-68
2022/04/30 02:21:29;;;;;;;18.43;8.60;;;10.10;99.90;;;;;;5101681;28;20583;-68
2022/04/30 02:23:58;;;;;;;12.63;7.60;;;10.00;99.90;;;;;;5103755;28;20535;-68
2022/04/30 02:26:27;;;;;;;17.77;8.67;;;10.00;99.90;;;;;;5100311;28;20425;-68
2022/04/30 02:28:57;;;;;;;33.73;8.23;;;10.00;99.90;;;;;;5109075;28;20433;-68
2022/04/30 02:31:25;;;;;;;16.00;8.63;;;10.00;99.90;;;;;;5085098;28;20453;-68
2022/04/30 02:33:54;;;;;;;16.17;7.33;;;10.00;99.90;;;;;;5104051;28;20525;-68
2022/04/30 02:36:23;;;;;;;16.37;8.10;;;9.90;99.90;;;;;;5109450;27;20437;-68
2022/04/30 02:38:49;;;;;;;14.37;8.00;;;9.90;99.90;;;;;;5109845;27;20440;-68
2022/04/30 02:41:15;;;;;;;13.77;7.97;;;9.90;99.90;;;;;;5106167;27;20869;-69
2022/04/30 02:43:41;;;;;;;15.23;7.80;;;9.90;99.90;;;;;;5108441;27;20759;-68
2022/04/30 02:46:06;;;;;;;19.43;8.13;;;9.90;99.90;;;;;;5111120;27;20532;-68
2022/04/30 02:48:32;;;;;;;16.93;8.33;;;9.90;99.90;;;;;;5096856;28;20223;-68
2022/04/30 02:51:00;;;;;;;14.30;7.60;;;9.90;99.90;;;;;;5110919;27;20179;-68
2022/04/30 02:53:26;;;;;;;19.67;9.33;;;9.90;99.90;;;;;;5101191;28;20172;-68
2022/04/30 02:55:51;;;;;;;16.50;8.73;;;9.90;99.90;;;;;;5103652;27;20807;-68
2022/04/30 03:01:01;;;;;;;14.53;7.77;;;9.90;99.90;;;;;;5111051;27;20219;-67
2022/04/30 03:03:29;;;;;;;20.73;10.40;;;9.90;99.90;;;;;;5088348;28;20957;-68
2022/04/30 03:05:56;;;;;;;17.63;9.90;;;9.90;99.90;;;;;;5110440;27;20191;-68
2022/04/30 03:08:25;;;;;;;16.47;8.93;;;9.80;99.90;;;;;;5106724;27;20440;-68
2022/04/30 03:10:55;;;;;;;28.30;11.50;;;9.80;99.90;;;;;;5104331;27;20438;-68
2022/04/30 03:13:21;;;;;;;27.33;9.00;;;9.80;99.90;;;;;;5103321;27;20425;-68
2022/04/30 03:15:50;;;;;;;22.57;11.20;;;9.80;99.90;;;;;;5112091;27;20460;-68
2022/04/30 03:23:48;;;;;;;20.33;10.07;;;9.70;99.90;;;;;;5106500;27;20652;-68
2022/04/30 03:26:15;;;;;;;21.73;10.80;;;9.70;99.90;;;;;;5107433;27;20885;-67
2022/04/30 03:28:42;;;;;;;23.23;11.63;;;9.70;99.90;;;;;;5113029;27;20445;-68
2022/04/30 03:31:15;;;;;;;25.43;11.20;;;9.70;99.90;;;;;;5106539;27;20444;-68
2022/04/30 03:33:42;;;;;;;21.40;11.07;;;9.70;99.90;;;;;;5101303;27;20950;-68
2022/04/30 03:36:11;;;;;;;26.17;11.30;;;9.70;99.90;;;;;;5107948;27;20433;-68
2022/04/30 03:38:37;;;;;;;30.47;10.70;;;9.60;99.90;;;;;;5106717;27;20471;-67
2022/04/30 03:41:05;;;;;;;23.40;11.57;;;9.70;99.90;;;;;;5107878;27;20433;-68
2022/04/30 03:43:31;;;;;;;24.00;11.97;;;9.60;99.90;;;;;;5098857;27;20518;-68
2022/04/30 03:45:57;;;;;;;21.33;10.23;;;9.60;99.90;;;;;;5105595;27;20430;-67
2022/04/30 03:48:22;;;;;;;27.83;12.37;;;9.70;99.90;;;;;;5103537;28;20503;-68
2022/04/30 03:50:48;;;;;;;23.47;11.73;;;9.60;99.90;;;;;;5113749;27;20177;-68
2022/04/30 03:53:14;;;;;;;23.20;12.97;;;9.60;99.90;;;;;;5105225;27;20187;-68
2022/04/30 03:55:39;;;;;;;33.60;13.67;;;9.60;99.90;;;;;;5102158;27;20176;-68
2022/04/30 03:58:05;;;;;;;29.87;13.97;;;9.60;99.90;;;;;;5096307;27;20191;-67
2022/04/30 04:00:31;;;;;;;23.87;13.03;;;9.60;99.90;;;;;;5105832;27;20195;-68
2022/04/30 04:02:59;;;;;;;23.27;13.80;;;9.60;99.90;;;;;;5103029;27;20662;-68
2022/04/30 04:05:26;;;;;;;30.40;15.17;;;9.60;99.90;;;;;;5109424;27;20437;-67
2022/04/30 04:07:52;;;;;;;26.33;14.70;;;9.50;99.90;;;;;;5107604;27;20441;-68
2022/04/30 04:10:17;;;;;;;33.10;14.00;;;9.40;99.90;;;;;;5105903;27;20491;-67
2022/04/30 04:12:43;;;;;;;36.87;14.50;;;9.40;99.90;;;;;;5111099;27;20786;-67
2022/04/30 04:17:55;;;;;;;33.70;17.70;;;9.30;99.90;;;;;;5102977;27;20198;-67
2022/04/30 04:20:24;;;;;;;38.17;17.60;;;9.30;99.90;;;;;;5105344;27;20422;-68
2022/04/30 04:22:51;;;;;;;35.20;16.83;;;9.30;99.90;;;;;;5109603;27;20433;-67
2022/04/30 04:28:00;;;;;;;36.40;17.30;;;9.20;99.90;;;;;;5103198;27;20536;-67
2022/04/30 04:30:28;;;;;;;35.13;16.33;;;9.20;99.90;;;;;;5105801;27;20516;-68
2022/04/30 04:32:55;;;;;;;39.77;17.43;;;9.20;99.90;;;;;;5101026;28;20179;-67
2022/04/30 04:35:22;;;;;;;40.40;16.40;;;9.20;99.90;;;;;;5099463;27;20439;-68
2022/04/30 04:37:47;;;;;;;37.10;17.37;;;9.20;99.90;;;;;;5112094;27;20805;-68
2022/04/30 04:40:14;;;;;;;45.07;18.43;;;9.20;99.90;;;;;;5105498;27;20449;-68
2022/04/30 04:42:41;;;;;;;43.47;16.33;;;9.20;99.90;;;;;;5110308;27;20175;-68
2022/04/30 04:45:08;;;;;;;35.00;17.40;;;9.20;99.90;;;;;;5108629;27;20490;-67
2022/04/30 04:47:41;;;;;;;41.33;19.90;;;9.10;99.90;;;;;;5108517;27;20484;-67
2022/04/30 04:50:12;;;;;;;40.50;18.37;;;9.10;99.90;;;;;;5105853;27;20994;-67
2022/04/30 04:52:39;;;;;;;34.23;17.63;;;9.10;99.90;;;;;;5107604;27;20445;-66
2022/04/30 04:55:05;;;;;;;34.00;16.80;;;9.10;99.90;;;;;;5113638;27;20440;-67
2022/04/30 04:57:30;;;;;;;38.67;17.53;;;9.00;99.90;;;;;;5101734;27;20834;-68
2022/04/30 04:59:57;;;;;;;38.43;16.83;;;9.00;99.90;;;;;;5103776;27;20493;-67
2022/04/30 05:02:23;;;;;;;37.80;17.60;;;9.00;99.90;;;;;;5102959;28;20643;-67
2022/04/30 05:04:48;;;;;;;35.00;17.23;;;9.00;99.90;;;;;;5110711;27;20489;-67
2022/04/30 05:07:14;;;;;;;44.63;18.30;;;9.00;99.90;;;;;;5099680;27;20445;-70
2022/04/30 05:09:40;;;;;;;43.63;18.93;;;9.00;99.90;;;;;;5109486;27;20171;-67
2022/04/30 05:12:07;;;;;;;30.73;15.90;;;9.00;99.90;;;;;;5106174;27;20722;-68
2022/04/30 05:14:33;;;;;;;38.20;17.73;;;9.00;99.90;;;;;;5106867;27;20451;-67
2022/04/30 05:17:00;;;;;;;42.50;16.60;;;9.00;99.90;;;;;;5109277;27;20463;-67
2022/04/30 05:19:26;;;;;;;34.87;17.70;;;9.00;99.90;;;;;;5104609;27;20524;-67
2022/04/30 05:21:51;;;;;;;37.00;18.87;;;8.90;99.90;;;;;;5105994;27;20538;-67
2022/04/30 05:24:17;;;;;;;34.60;17.30;;;8.90;99.90;;;;;;5105719;27;20222;-67
2022/04/30 05:26:43;;;;;;;39.63;16.90;;;8.90;99.90;;;;;;5105914;27;20670;-67
2022/04/30 05:29:08;;;;;;;34.23;16.27;;;8.90;99.90;;;;;;5101303;28;20187;-67
2022/04/30 05:31:34;;;;;;;35.23;17.87;;;8.90;99.90;;;;;;5102203;27;20202;-67
2022/04/30 05:33:59;;;;;;;32.37;15.57;;;9.00;99.90;;;;;;5107477;27;20274;-67
2022/04/30 05:36:25;;;;;;;37.33;17.90;;;9.00;99.90;;;;;;5104614;28;20183;-67
2022/04/30 05:38:51;;;;;;;35.90;16.33;;;8.90;99.90;;;;;;5102720;28;20196;-67
2022/04/30 05:41:17;;;;;;;44.03;17.67;;;8.90;99.90;;;;;;5104250;28;20186;-67
2022/04/30 05:43:43;;;;;;;46.13;17.80;;;8.90;99.90;;;;;;5102639;28;20757;-68
2022/04/30 05:46:08;;;;;;;32.03;16.30;;;8.90;99.90;;;;;;5105736;28;20481;-67
2022/04/30 05:48:34;;;;;;;37.20;15.30;;;8.90;99.90;;;;;;5105375;28;20184;-69
2022/04/30 05:51:02;;;;;;;34.93;16.43;;;8.90;99.90;;;;;;5109962;28;20256;-70
2022/04/30 05:53:27;;;;;;;38.13;16.53;;;8.90;99.90;;;;;;5099553;28;20199;-68
2022/04/30 05:55:53;;;;;;;42.67;17.50;;;8.90;99.90;;;;;;5105450;28;20444;-67
2022/04/30 05:58:19;;;;;;;33.37;16.30;;;8.90;99.90;;;;;;5102474;28;20600;-68
2022/04/30 06:00:45;;;;;;;30.20;15.47;;;8.90;99.90;;;;;;5110867;28;20187;-68
2022/04/30 06:03:11;;;;;;;31.50;16.40;;;8.90;99.90;;;;;;5103266;28;20211;-67
2022/04/30 06:05:37;;;;;;;34.30;16.97;;;9.00;99.90;;;;;;5104170;28;20444;-68
2022/04/30 06:08:06;;;;;;;32.63;16.13;;;9.10;99.90;;;;;;5106216;28;20188;-68
2022/04/30 06:10:32;;;;;;;34.40;16.57;;;9.10;99.90;;;;;;5100793;28;21053;-68
2022/04/30 06:12:58;;;;;;;32.50;16.10;;;9.10;99.90;;;;;;5105358;27;20433;-65
2022/04/30 06:15:24;;;;;;;36.33;15.60;;;9.20;99.90;;;;;;5108194;27;20464;-65
2022/04/30 06:17:50;;;;;;;31.30;16.10;;;9.20;99.90;;;;;;5110300;27;21068;-65
2022/04/30 06:20:15;;;;;;;34.07;14.37;;;9.20;99.90;;;;;;5110817;27;20575;-65
2022/04/30 06:22:41;;;;;;;31.90;15.00;;;9.30;99.90;;;;;;5109555;27;20210;-66
2022/04/30 06:25:07;;;;;;;31.37;15.60;;;9.30;99.90;;;;;;5110005;27;20214;-65
2022/04/30 06:27:33;;;;;;;29.30;15.03;;;9.30;99.90;;;;;;5106649;27;20674;-66
2022/04/30 06:29:59;;;;;;;32.30;16.40;;;9.30;99.90;;;;;;5110608;27;20505;-65
2022/04/30 06:32:25;;;;;;;29.70;12.83;;;9.30;99.90;;;;;;5108338;27;20188;-66
2022/04/30 06:34:51;;;;;;;29.43;13.73;;;9.30;99.90;;;;;;5105709;27;20444;-65
2022/04/30 06:37:17;;;;;;;30.03;15.00;;;9.30;99.90;;;;;;5102954;27;20979;-66
2022/04/30 06:39:43;;;;;;;34.43;15.07;;;9.30;99.90;;;;;;5107572;27;20179;-66
2022/04/30 06:42:09;;;;;;;41.93;15.20;;;9.30;99.90;;;;;;5100760;28;20195;-66
2022/04/30 06:44:35;;;;;;;40.50;16.70;;;9.30;99.90;;;;;;5106303;27;20814;-67
2022/04/30 06:47:01;;;;;;;28.60;13.27;;;9.30;99.90;;;;;;5114655;27;20183;-66
2022/04/30 06:49:27;;;;;;;30.33;15.20;;;9.30;99.90;;;;;;5099481;28;20196;-66
2022/04/30 06:51:53;;;;;;;26.83;14.27;;;9.30;99.90;;;;;;5102571;27;20183;-66
2022/04/30 06:57:22;;;;;;;30.60;15.47;;;9.30;99.90;;;;;;5114907;27;20229;-66
2022/04/30 06:59:51;;;;;;;27.00;13.90;;;9.20;99.90;;;;;;5105746;27;20436;-66
2022/04/30 07:02:18;;;;;;;31.23;14.00;;;9.20;99.90;;;;;;5101944;27;20452;-66
2022/04/30 07:04:46;;;;;;;38.20;15.73;;;9.20;99.90;;;;;;5113556;27;20468;-67
2022/04/30 07:07:13;;;;;;;32.60;14.67;;;9.20;99.90;;;;;;5106003;27;20530;-66
2022/04/30 07:09:39;;;;;;;27.83;14.63;;;9.20;99.90;;;;;;5106029;27;20437;-67
2022/04/30 07:12:07;;;;;;;29.17;14.63;;;9.10;99.90;;;;;;5107444;27;20498;-66
2022/04/30 07:14:37;;;;;;;25.00;12.67;;;9.10;99.90;;;;;;5111945;27;20280;-66
2022/04/30 07:17:07;;;;;;;29.67;15.60;;;9.10;99.90;;;;;;5107703;27;20455;-66
2022/04/30 07:19:34;;;;;;;29.80;13.87;;;9.10;99.90;;;;;;5104570;27;21115;-66
2022/04/30 07:22:00;;;;;;;35.20;14.43;;;9.10;99.90;;;;;;5104050;27;20476;-66
2022/04/30 07:24:27;;;;;;;28.07;14.00;;;9.10;99.90;;;;;;5107081;27;20473;-67
2022/04/30 07:26:52;;;;;;;30.63;13.80;;;9.10;99.90;;;;;;5109116;27;20913;-67
2022/04/30 07:29:18;;;;;;;25.30;14.00;;;9.10;99.90;;;;;;5099440;27;20476;-66
2022/04/30 07:31:44;;;;;;;29.50;14.00;;;9.00;99.90;;;;;;5105556;27;20639;-66
2022/04/30 07:34:09;;;;;;;29.23;15.00;;;9.00;99.90;;;;;;5103469;27;20219;-66
2022/04/30 07:36:39;;;;;;;32.60;14.00;;;9.00;99.90;;;;;;5106466;27;20211;-66
2022/04/30 07:39:05;;;;;;;34.73;14.60;;;9.00;99.90;;;;;;5104594;27;20183;-66
2022/04/30 07:41:31;;;;;;;34.10;13.90;;;9.00;99.90;;;;;;5095378;27;20848;-67
2022/04/30 07:43:57;;;;;;;29.07;14.57;;;9.00;99.90;;;;;;5108021;27;20746;-67
2022/04/30 07:46:22;;;;;;;35.63;16.90;;;9.00;99.90;;;;;;5104777;27;20445;-67
2022/04/30 07:48:49;;;;;;;31.03;15.30;;;9.00;99.90;;;;;;5103352;27;20237;-67
2022/04/30 07:51:18;;;;;;;38.43;18.23;;;9.00;99.90;;;;;;5100396;27;20188;-66
2022/04/30 07:53:47;;;;;;;40.57;17.40;;;9.00;99.90;;;;;;5085026;27;20445;-67
2022/04/30 07:56:14;;;;;;;35.40;16.63;;;9.00;99.90;;;;;;5102148;27;21182;-67
2022/04/30 07:58:40;;;;;;;30.80;15.37;;;9.10;99.90;;;;;;5106292;27;20913;-67
2022/04/30 08:01:06;;;;;;;33.00;16.17;;;9.10;99.90;;;;;;5109390;27;20540;-66
2022/04/30 08:03:32;;;;;;;35.07;15.60;;;9.10;99.90;;;;;;5102561;27;20218;-67
2022/04/30 08:05:58;;;;;;;30.03;13.83;;;9.10;99.90;;;;;;5100318;27;20188;-71
2022/04/30 08:08:23;;;;;;;29.87;14.10;;;9.30;99.90;;;;;;5102834;27;20457;-72
2022/04/30 08:10:49;;;;;;;29.97;13.77;;;9.20;99.90;;;;;;5104841;27;20180;-68
2022/04/30 08:13:15;;;;;;;31.73;14.33;;;9.20;99.90;;;;;;5106233;27;20188;-69
2022/04/30 08:15:43;;;;;;;30.70;12.93;;;9.20;99.90;;;;;;5112133;27;20203;-68
2022/04/30 08:18:10;;;;;;;34.60;14.47;;;9.20;99.90;;;;;;5104402;27;20270;-68
2022/04/30 08:20:37;;;;;;;24.77;13.00;;;9.30;99.90;;;;;;5112741;27;21043;-68
2022/04/30 08:23:04;;;;;;;27.73;13.20;;;9.30;99.90;;;;;;5106090;27;20456;-68
2022/04/30 08:25:30;;;;;;;28.43;13.43;;;9.40;99.90;;;;;;5101711;27;20449;-69
2022/04/30 08:27:55;;;;;;;27.47;12.43;;;9.40;99.90;;;;;;5105621;27;20731;-68
2022/04/30 08:30:21;;;;;;;24.83;12.50;;;9.50;99.90;;;;;;5102743;27;20188;-68
2022/04/30 08:32:49;;;;;;;24.90;11.37;;;9.50;99.90;;;;;;5106430;27;20185;-68
2022/04/30 08:35:15;;;;;;;21.47;12.00;;;9.60;99.90;;;;;;5099052;27;20282;-68
2022/04/30 08:37:41;;;;;;;20.97;11.00;;;9.60;99.90;;;;;;5107067;27;20441;-68
2022/04/30 08:40:07;;;;;;;17.97;9.77;;;9.70;99.90;;;;;;5106266;27;20212;-68
2022/04/30 08:42:33;;;;;;;16.13;9.40;;;9.70;99.90;;;;;;5106012;27;20189;-68
2022/04/30 08:45:02;;;;;;;23.93;11.13;;;9.70;99.90;;;;;;5102256;27;20468;-68
2022/04/30 08:47:30;;;;;;;21.07;10.20;;;9.80;99.90;;;;;;5100912;27;20191;-68
2022/04/30 08:49:56;;;;;;;24.70;9.50;;;9.80;99.90;;;;;;5108659;27;20440;-68
2022/04/30 08:52:22;;;;;;;16.67;9.40;;;9.80;99.90;;;;;;5107776;27;20435;-68
2022/04/30 08:54:48;;;;;;;18.80;10.00;;;9.90;99.90;;;;;;5108815;27;20445;-68
2022/04/30 08:57:15;;;;;;;14.90;8.13;;;9.90;99.90;;;;;;5100392;27;20187;-68
2022/04/30 08:59:41;;;;;;;14.03;8.50;;;9.90;99.90;;;;;;5105126;27;20217;-68
2022/04/30 09:02:11;;;;;;;24.13;9.90;;;9.90;99.90;;;;;;5106618;27;20523;-68
2022/04/30 09:04:48;;;;;;;16.77;8.40;;;10.00;99.90;;;;;;5105275;27;20468;-68
2022/04/30 09:07:22;;;;;;;20.43;8.73;;;10.10;99.90;;;;;;5082334;27;20436;-68
2022/04/30 09:09:55;;;;;;;17.80;8.47;;;10.10;99.90;;;;;;5107236;27;20495;-68
2022/04/30 09:12:21;;;;;;;15.20;8.73;;;10.10;99.90;;;;;;5105854;27;20444;-68
2022/04/30 09:14:47;;;;;;;14.60;8.73;;;10.20;99.90;;;;;;5106867;27;20441;-68
2022/04/30 09:17:15;;;;;;;15.40;8.30;;;10.30;99.90;;;;;;5102320;27;20945;-68
2022/04/30 09:19:56;;;;;;;15.70;7.60;;;10.40;99.90;;;;;;5099624;27;21351;-68
2022/04/30 09:22:37;;;;;;;17.53;8.37;;;10.50;99.90;;;;;;5103462;27;20517;-68
2022/04/30 09:25:12;;;;;;;13.53;9.07;;;10.70;99.90;;;;;;5104675;27;20857;-69
2022/04/30 09:27:46;;;;;;;13.97;7.90;;;10.60;99.90;;;;;;5103106;27;21133;-68
2022/04/30 09:30:20;;;;;;;15.03;7.80;;;10.60;99.90;;;;;;5102814;27;20437;-69
2022/04/30 09:32:56;;;;;;;16.70;8.30;;;10.70;99.90;;;;;;5103334;27;20481;-68
2022/04/30 09:38:06;;;;;;;16.00;7.50;;;10.80;99.90;;;;;;5100072;28;20768;-68
2022/04/30 09:40:32;;;;;;;17.00;8.00;;;11.00;99.90;;;;;;5102331;28;20429;-67
2022/04/30 09:42:58;;;;;;;16.67;7.23;;;11.00;99.90;;;;;;5106140;28;20190;-69
2022/04/30 09:45:33;;;;;;;12.83;7.63;;;11.20;99.90;;;;;;5099181;27;20701;-69
2022/04/30 09:48:02;;;;;;;11.57;7.30;;;11.20;99.90;;;;;;5110854;27;20449;-69
2022/04/30 09:56:18;;;;;;;12.33;7.47;;;11.80;99.90;;;;;;5106314;27;20497;-69
2022/04/30 09:58:45;;;;;;;13.43;7.27;;;11.80;99.90;;;;;;5104090;27;21213;-69
2022/04/30 10:01:13;;;;;;;12.63;5.60;;;11.70;99.90;;;;;;5109560;27;20755;-68
2022/04/30 10:03:42;;;;;;;10.93;4.90;;;11.60;99.90;;;;;;5105850;27;20487;-69
2022/04/30 10:06:08;;;;;;;8.10;4.30;;;11.60;99.90;;;;;;5109316;27;20434;-69
2022/04/30 10:08:39;;;;;;;7.07;4.80;;;11.60;99.90;;;;;;5105999;27;20436;-69
2022/04/30 10:11:32;;;;;;;9.57;4.77;;;11.60;99.90;;;;;;5098920;27;20229;-69
2022/04/30 10:14:15;;;;;;;9.07;4.70;;;11.40;99.90;;;;;;5109182;27;20451;-68
2022/04/30 10:16:48;;;;;;;7.33;4.60;;;11.30;99.90;;;;;;5110930;27;20787;-69
2022/04/30 10:19:20;;;;;;;9.73;4.47;;;11.30;99.90;;;;;;5094245;27;20528;-68
2022/04/30 10:22:24;;;;;;;6.07;3.97;;;11.40;99.90;;;;;;5105024;27;20932;-69
2022/04/30 10:24:53;;;;;;;6.33;3.23;;;11.40;99.90;;;;;;5113893;27;20468;-69
2022/04/30 10:27:19;;;;;;;4.53;3.07;;;11.50;99.90;;;;;;5106707;27;20461;-68
2022/04/30 10:29:59;;;;;;;8.13;3.07;;;11.60;99.90;;;;;;5106264;27;20840;-69
2022/04/30 10:32:32;;;;;;;7.83;3.60;;;11.50;99.90;;;;;;5104797;27;20223;-69
2022/04/30 10:34:59;;;;;;;4.53;2.77;;;11.50;99.90;;;;;;5110683;27;21065;-69
2022/04/30 10:37:34;;;;;;;6.70;4.03;;;11.50;99.90;;;;;;5104895;27;20449;-69
2022/04/30 10:40:02;;;;;;;8.90;3.67;;;11.50;99.90;;;;;;5107160;27;20444;-69
2022/04/30 10:42:38;;;;;;;4.93;3.10;;;11.70;99.90;;;;;;5107846;27;20441;-69
2022/04/30 10:45:05;;;;;;;5.97;3.30;;;11.70;99.90;;;;;;5104577;27;20475;-69
2022/04/30 10:47:30;;;;;;;7.30;3.53;;;11.80;99.90;;;;;;5108481;27;20513;-70
2022/04/30 10:49:56;;;;;;;5.43;2.50;;;11.90;99.90;;;;;;5106131;27;20520;-69
2022/04/30 10:52:24;;;;;;;3.13;2.13;;;12.10;99.90;;;;;;5109121;27;20262;-70
2022/04/30 10:54:51;;;;;;;5.63;3.60;;;12.30;99.90;;;;;;5109851;27;20270;-70
2022/04/30 10:57:17;;;;;;;5.40;3.50;;;12.30;99.90;;;;;;5101307;27;20469;-70
2022/04/30 10:59:43;;;;;;;6.60;4.03;;;12.50;99.90;;;;;;5105831;27;20533;-70
2022/04/30 11:02:14;;;;;;;24.53;17.60;;;12.70;99.90;;;;;;5108903;27;20267;-70
2022/04/30 11:04:43;;;;;;;6.33;2.10;;;12.70;99.90;;;;;;5100498;27;20226;-70
2022/04/30 11:07:09;;;;;;;4.27;2.30;;;12.70;99.90;;;;;;5101334;27;20480;-69
2022/04/30 11:09:43;;;;;;;3.90;2.53;;;12.60;99.90;;;;;;5104672;27;20583;-70
2022/04/30 11:12:15;;;;;;;7.17;3.97;;;12.40;99.90;;;;;;5106484;27;20463;-69
2022/04/30 11:14:47;;;;;;;5.27;3.30;;;12.10;99.90;;;;;;5106988;27;20440;-69
2022/04/30 11:17:13;;;;;;;7.50;3.90;;;11.90;99.90;;;;;;5101779;27;20448;-69
2022/04/30 11:19:43;;;;;;;5.50;3.03;;;11.70;99.90;;;;;;5106374;27;20504;-73
2022/04/30 11:22:09;;;;;;;5.40;3.17;;;11.60;99.90;;;;;;5101513;27;20670;-69
2022/04/30 11:24:39;;;;;;;7.20;3.93;;;11.40;99.90;;;;;;5106139;27;20888;-69
2022/04/30 11:27:08;;;;;;;7.77;4.60;;;11.10;99.90;;;;;;5105945;27;20925;-69
2022/04/30 11:29:36;;;;;;;7.17;3.67;;;11.00;99.90;;;;;;5107199;27;20794;-69
2022/04/30 11:32:03;;;;;;;7.27;3.87;;;11.00;99.90;;;;;;5109156;27;20524;-70
2022/04/30 11:34:29;;;;;;;9.70;5.43;;;10.90;99.90;;;;;;5109341;27;20445;-69
2022/04/30 11:37:00;;;;;;;9.60;5.00;;;10.80;99.90;;;;;;5108099;27;20451;-69
2022/04/30 11:39:27;;;;;;;15.10;5.57;;;10.80;99.90;;;;;;5098279;27;20192;-69
2022/04/30 11:41:55;;;;;;;11.47;5.17;;;10.70;99.90;;;;;;5104133;27;20445;-70
2022/04/30 11:44:25;;;;;;;6.43;3.87;;;10.70;99.90;;;;;;5105849;27;20571;-69
2022/04/30 11:46:52;;;;;;;7.50;4.40;;;10.80;99.90;;;;;;5101738;27;20753;-69
2022/04/30 11:49:21;;;;;;;7.70;3.70;;;10.90;99.90;;;;;;5109591;27;20851;-69
2022/04/30 11:51:49;;;;;;;7.67;3.10;;;11.10;99.90;;;;;;5104372;27;20440;-70
2022/04/30 11:54:17;;;;;;;6.37;3.90;;;11.40;99.90;;;;;;5111553;27;20472;-68
2022/04/30 11:56:43;;;;;;;4.80;2.70;;;11.80;99.90;;;;;;5109641;27;20437;-69
2022/04/30 11:59:10;;;;;;;4.70;2.97;;;12.10;99.90;;;;;;5107032;27;20436;-69
2022/04/30 12:01:38;;;;;;;7.40;2.83;;;12.10;99.90;;;;;;5099874;27;20449;-69
2022/04/30 12:04:05;;;;;;;5.50;2.87;;;12.10;99.90;;;;;;5107143;27;20468;-70
2022/04/30 12:06:32;;;;;;;6.30;2.73;;;12.60;99.90;;;;;;5104664;27;20566;-70
2022/04/30 12:08:58;;;;;;;6.53;2.83;;;13.00;99.90;;;;;;5105580;27;20550;-69
2022/04/30 12:11:26;;;;;;;4.33;2.33;;;13.00;99.90;;;;;;5102415;27;20441;-69
2022/04/30 12:13:59;;;;;;;5.47;3.10;;;12.90;99.90;;;;;;5106418;27;20462;-69
2022/04/30 12:16:32;;;;;;;6.40;3.70;;;12.60;99.90;;;;;;5106885;27;20437;-69
2022/04/30 12:24:43;;;;;;;7.53;3.80;;;12.40;99.90;;;;;;5107034;27;21094;-69
2022/04/30 12:27:11;;;;;;;6.80;3.50;;;12.10;99.90;;;;;;5101521;27;20440;-69
2022/04/30 12:29:37;;;;;;;6.53;3.60;;;12.00;99.90;;;;;;5104853;27;20421;-70
2022/04/30 12:32:07;;;;;;;5.87;3.37;;;11.80;99.90;;;;;;5104465;27;20448;-70
2022/04/30 12:34:41;;;;;;;6.53;3.50;;;11.90;99.90;;;;;;5109768;27;20941;-69
2022/04/30 12:37:08;;;;;;;5.50;3.30;;;11.90;99.90;;;;;;5107734;27;20479;-69
2022/04/30 12:39:34;;;;;;;7.03;4.03;;;11.90;99.90;;;;;;5100628;27;20448;-69
2022/04/30 12:42:00;;;;;;;6.13;4.10;;;11.80;99.90;;;;;;5106039;27;20453;-70
2022/04/30 12:44:27;;;;;;;7.67;4.20;;;11.80;99.90;;;;;;5100709;27;20465;-69
2022/04/30 12:46:53;;;;;;;8.27;3.90;;;11.90;99.90;;;;;;5110834;27;20987;-69
2022/04/30 12:49:19;;;;;;;9.00;4.10;;;11.90;99.90;;;;;;5106619;27;21126;-70
2022/04/30 12:51:48;;;;;;;9.13;5.00;;;11.90;99.90;;;;;;5106896;27;20422;-70
2022/04/30 12:54:14;;;;;;;8.87;4.07;;;11.90;99.90;;;;;;5102772;27;20444;-70
2022/04/30 12:56:41;;;;;;;10.10;3.57;;;12.00;99.90;;;;;;5108292;27;20440;-73
2022/04/30 12:59:07;;;;;;;7.43;4.13;;;12.20;99.90;;;;;;5110872;27;20441;-68
2022/04/30 13:01:34;;;;;;;6.90;3.93;;;12.20;99.90;;;;;;5105859;27;20481;-69
2022/04/30 13:04:01;;;;;;;9.33;4.80;;;12.20;99.90;;;;;;5100344;27;20621;-68
2022/04/30 13:06:27;;;;;;;9.73;3.83;;;12.20;99.90;;;;;;5107190;27;20436;-68
2022/04/30 13:14:21;;;;;;;11.13;3.53;;;12.60;99.90;;;;;;5103232;27;20536;-68
2022/04/30 13:16:48;;;;;;;6.60;3.40;;;12.50;99.90;;;;;;5102964;27;20508;-69
2022/04/30 13:19:15;;;;;;;4.60;2.20;;;12.30;99.90;;;;;;5090685;28;20228;-68
2022/04/30 13:21:41;;;;;;;6.77;2.83;;;12.20;99.90;;;;;;5103215;27;20430;-68
2022/04/30 13:24:07;;;;;;;7.63;3.50;;;12.20;99.90;;;;;;5103391;27;25506;-71